sensor_id;sensor_type;location;lat;lon;timestamp;P1;durP1;ratioP1;P2;durP2;ratioP2
63320;SDS011;49449;48.800;9.534;2023-02-01T00:01:21;2.90;;;2.40;;
63320;SDS011;49449;48.800;9.534;2023-02-01T00:03:49;2.88;;;2.67;;
63320;SDS011;49449;48.800;9.534;2023-02-01T00:06:17;4.05;;;2.83;;
63320;SDS011;49449;48.800;9.534;2023-02-01T00:08:44;3.00;;;2.70;;
63320;SDS011;49449;48.800;9.534;2023-02-01T00:11:12;3.30;;;2.90;;
63320;SDS011;49449;48.800;9.534;2023-02-01T00:13:41;3.10;;;2.75;;
63320;SDS011;49449;48.800;9.534;2023-02-01T00:16:11;3.47;;;2.63;;
63320;SDS011;49449;48.800;9.534;2023-02-01T00:18:42;5.20;;;2.88;;
63320;SDS011;49449;48.800;9.534;2023-02-01T00:21:10;3.25;;;2.78;;
63320;SDS011;49449;48.800;9.534;2023-02-01T00:23:39;2.85;;;2.53;;
63320;SDS011;49449;48.800;9.534;2023-02-01T00:26:07;2.30;;;1.90;;
63320;SDS011;49449;48.800;9.534;2023-02-01T00:28:40;2.63;;;2.42;;
63320;SDS011;49449;48.800;9.534;2023-02-01T00:31:08;3.55;;;2.78;;
63320;SDS011;49449;48.800;9.534;2023-02-01T00:33:37;2.90;;;2.70;;
63320;SDS011;49449;48.800;9.534;2023-02-01T00:36:06;2.35;;;2.15;;
63320;SDS011;49449;48.800;9.534;2023-02-01T00:38:36;2.28;;;2.08;;
63320;SDS011;49449;48.800;9.534;2023-02-01T00:41:05;2.67;;;2.47;;
63320;SDS011;49449;48.800;9.534;2023-02-01T00:43:35;2.38;;;2.17;;
63320;SDS011;49449;48.800;9.534;2023-02-01T00:46:02;2.40;;;2.20;;
63320;SDS011;49449;48.800;9.534;2023-02-01T00:48:31;2.50;;;2.22;;
63320;SDS011;49449;48.800;9.534;2023-02-01T00:51:00;3.15;;;2.92;;
63320;SDS011;49449;48.800;9.534;2023-02-01T00:53:29;2.88;;;2.53;;
63320;SDS011;49449;48.800;9.534;2023-02-01T00:55:57;2.22;;;2.13;;
63320;SDS011;49449;48.800;9.534;2023-02-01T00:58:25;2.90;;;2.35;;
63320;SDS011;49449;48.800;9.534;2023-02-01T01:01:00;2.28;;;2.00;;
63320;SDS011;49449;48.800;9.534;2023-02-01T01:03:30;2.78;;;1.90;;
63320;SDS011;49449;48.800;9.534;2023-02-01T01:06:02;1.80;;;1.70;;
63320;SDS011;49449;48.800;9.534;2023-02-01T01:08:32;2.28;;;2.08;;
63320;SDS011;49449;48.800;9.534;2023-02-01T01:11:03;2.17;;;1.98;;
63320;SDS011;49449;48.800;9.534;2023-02-01T01:13:32;2.47;;;2.28;;
63320;SDS011;49449;48.800;9.534;2023-02-01T01:16:00;2.97;;;2.67;;
63320;SDS011;49449;48.800;9.534;2023-02-01T01:18:29;2.45;;;2.25;;
63320;SDS011;49449;48.800;9.534;2023-02-01T01:20:57;2.42;;;1.83;;
63320;SDS011;49449;48.800;9.534;2023-02-01T01:23:27;1.95;;;1.85;;
63320;SDS011;49449;48.800;9.534;2023-02-01T01:25:55;2.58;;;2.38;;
63320;SDS011;49449;48.800;9.534;2023-02-01T01:28:23;2.42;;;2.22;;
63320;SDS011;49449;48.800;9.534;2023-02-01T01:30:51;2.42;;;1.73;;
63320;SDS011;49449;48.800;9.534;2023-02-01T01:33:18;2.22;;;2.03;;
63320;SDS011;49449;48.800;9.534;2023-02-01T01:35:46;1.88;;;1.77;;
63320;SDS011;49449;48.800;9.534;2023-02-01T01:38:14;1.88;;;1.77;;
63320;SDS011;49449;48.800;9.534;2023-02-01T01:40:45;2.22;;;2.10;;
63320;SDS011;49449;48.800;9.534;2023-02-01T01:43:16;1.90;;;1.80;;
63320;SDS011;49449;48.800;9.534;2023-02-01T01:45:48;2.00;;;1.90;;
63320;SDS011;49449;48.800;9.534;2023-02-01T01:48:17;2.40;;;2.20;;
63320;SDS011;49449;48.800;9.534;2023-02-01T01:50:53;1.80;;;1.70;;
63320;SDS011;49449;48.800;9.534;2023-02-01T01:53:27;2.30;;;2.10;;
63320;SDS011;49449;48.800;9.534;2023-02-01T01:55:58;2.42;;;2.33;;
63320;SDS011;49449;48.800;9.534;2023-02-01T01:58:28;1.90;;;1.80;;
63320;SDS011;49449;48.800;9.534;2023-02-01T02:01:00;1.88;;;1.77;;
63320;SDS011;49449;48.800;9.534;2023-02-01T02:03:29;1.83;;;1.73;;
63320;SDS011;49449;48.800;9.534;2023-02-01T02:06:00;1.98;;;1.88;;
63320;SDS011;49449;48.800;9.534;2023-02-01T02:08:34;2.15;;;2.05;;
63320;SDS011;49449;48.800;9.534;2023-02-01T02:11:03;1.90;;;1.80;;
63320;SDS011;49449;48.800;9.534;2023-02-01T02:13:31;2.22;;;2.03;;
63320;SDS011;49449;48.800;9.534;2023-02-01T02:16:08;2.28;;;1.92;;
63320;SDS011;49449;48.800;9.534;2023-02-01T02:18:48;2.53;;;2.08;;
63320;SDS011;49449;48.800;9.534;2023-02-01T02:21:30;1.90;;;1.80;;
63320;SDS011;49449;48.800;9.534;2023-02-01T02:27:07;2.15;;;1.95;;
63320;SDS011;49449;48.800;9.534;2023-02-01T02:32:59;2.42;;;1.95;;
63320;SDS011;49449;48.800;9.534;2023-02-01T02:36:01;2.15;;;2.05;;
63320;SDS011;49449;48.800;9.534;2023-02-01T02:38:39;2.10;;;2.00;;
63320;SDS011;49449;48.800;9.534;2023-02-01T02:41:13;1.88;;;1.77;;
63320;SDS011;49449;48.800;9.534;2023-02-01T02:44:00;2.33;;;2.10;;
63320;SDS011;49449;48.800;9.534;2023-02-01T02:46:54;2.00;;;1.90;;
63320;SDS011;49449;48.800;9.534;2023-02-01T02:49:48;2.22;;;2.03;;
63320;SDS011;49449;48.800;9.534;2023-02-01T02:52:41;2.17;;;2.00;;
63320;SDS011;49449;48.800;9.534;2023-02-01T02:55:33;1.92;;;1.83;;
63320;SDS011;49449;48.800;9.534;2023-02-01T03:00:50;2.22;;;2.13;;
63320;SDS011;49449;48.800;9.534;2023-02-01T03:03:38;2.35;;;2.15;;
63320;SDS011;49449;48.800;9.534;2023-02-01T03:06:24;1.90;;;1.80;;
63320;SDS011;49449;48.800;9.534;2023-02-01T03:08:56;2.50;;;2.28;;
63320;SDS011;49449;48.800;9.534;2023-02-01T03:11:25;2.35;;;2.15;;
63320;SDS011;49449;48.800;9.534;2023-02-01T03:14:14;2.50;;;2.28;;
63320;SDS011;49449;48.800;9.534;2023-02-01T03:16:44;2.55;;;2.33;;
63320;SDS011;49449;48.800;9.534;2023-02-01T03:19:19;2.33;;;2.10;;
63320;SDS011;49449;48.800;9.534;2023-02-01T03:21:51;2.38;;;2.28;;
63320;SDS011;49449;48.800;9.534;2023-02-01T03:24:25;2.15;;;2.05;;
63320;SDS011;49449;48.800;9.534;2023-02-01T03:27:01;2.40;;;2.20;;
63320;SDS011;49449;48.800;9.534;2023-02-01T03:29:34;2.28;;;1.90;;
63320;SDS011;49449;48.800;9.534;2023-02-01T03:32:07;2.33;;;2.13;;
63320;SDS011;49449;48.800;9.534;2023-02-01T03:34:36;2.33;;;2.13;;
63320;SDS011;49449;48.800;9.534;2023-02-01T03:37:04;4.20;;;2.60;;
63320;SDS011;49449;48.800;9.534;2023-02-01T03:39:39;2.55;;;2.20;;
63320;SDS011;49449;48.800;9.534;2023-02-01T03:42:12;2.47;;;2.28;;
63320;SDS011;49449;48.800;9.534;2023-02-01T03:44:45;2.50;;;2.30;;
63320;SDS011;49449;48.800;9.534;2023-02-01T03:47:17;3.05;;;2.63;;
63320;SDS011;49449;48.800;9.534;2023-02-01T03:49:49;2.75;;;2.33;;
63320;SDS011;49449;48.800;9.534;2023-02-01T03:52:21;2.50;;;2.30;;
63320;SDS011;49449;48.800;9.534;2023-02-01T03:54:53;2.78;;;2.28;;
63320;SDS011;49449;48.800;9.534;2023-02-01T03:57:23;3.15;;;2.90;;
63320;SDS011;49449;48.800;9.534;2023-02-01T03:59:54;2.75;;;2.55;;
63320;SDS011;49449;48.800;9.534;2023-02-01T04:02:32;2.88;;;2.65;;
63320;SDS011;49449;48.800;9.534;2023-02-01T04:05:00;2.78;;;2.58;;
63320;SDS011;49449;48.800;9.534;2023-02-01T04:07:28;3.47;;;2.90;;
63320;SDS011;49449;48.800;9.534;2023-02-01T04:09:57;2.78;;;2.58;;
63320;SDS011;49449;48.800;9.534;2023-02-01T04:12:28;2.80;;;2.60;;
63320;SDS011;49449;48.800;9.534;2023-02-01T04:14:55;3.33;;;2.55;;
63320;SDS011;49449;48.800;9.534;2023-02-01T04:17:24;2.72;;;2.53;;
63320;SDS011;49449;48.800;9.534;2023-02-01T04:19:52;2.47;;;2.28;;
63320;SDS011;49449;48.800;9.534;2023-02-01T04:22:20;3.00;;;2.70;;
63320;SDS011;49449;48.800;9.534;2023-02-01T04:24:48;2.53;;;2.33;;
63320;SDS011;49449;48.800;9.534;2023-02-01T04:27:17;2.45;;;2.25;;
63320;SDS011;49449;48.800;9.534;2023-02-01T04:29:45;2.70;;;2.50;;
63320;SDS011;49449;48.800;9.534;2023-02-01T04:32:16;2.80;;;2.47;;
63320;SDS011;49449;48.800;9.534;2023-02-01T04:34:44;4.50;;;2.65;;
63320;SDS011;49449;48.800;9.534;2023-02-01T04:37:11;2.05;;;1.95;;
63320;SDS011;49449;48.800;9.534;2023-02-01T04:39:39;2.67;;;2.47;;
63320;SDS011;49449;48.800;9.534;2023-02-01T04:42:07;2.85;;;2.20;;
63320;SDS011;49449;48.800;9.534;2023-02-01T04:44:36;2.70;;;2.47;;
63320;SDS011;49449;48.800;9.534;2023-02-01T04:47:05;3.25;;;2.83;;
63320;SDS011;49449;48.800;9.534;2023-02-01T04:49:33;2.22;;;2.13;;
63320;SDS011;49449;48.800;9.534;2023-02-01T04:52:01;2.90;;;2.50;;
63320;SDS011;49449;48.800;9.534;2023-02-01T04:54:29;2.47;;;2.28;;
63320;SDS011;49449;48.800;9.534;2023-02-01T04:56:56;2.58;;;2.38;;
63320;SDS011;49449;48.800;9.534;2023-02-01T04:59:24;2.63;;;2.42;;
63320;SDS011;49449;48.800;9.534;2023-02-01T05:01:53;2.70;;;2.50;;
63320;SDS011;49449;48.800;9.534;2023-02-01T05:04:21;2.47;;;2.28;;
63320;SDS011;49449;48.800;9.534;2023-02-01T05:06:49;2.33;;;2.17;;
63320;SDS011;49449;48.800;9.534;2023-02-01T05:09:17;2.63;;;2.42;;
63320;SDS011;49449;48.800;9.534;2023-02-01T05:11:44;2.50;;;2.30;;
63320;SDS011;49449;48.800;9.534;2023-02-01T05:14:30;2.65;;;2.38;;
63320;SDS011;49449;48.800;9.534;2023-02-01T05:16:59;2.67;;;2.47;;
63320;SDS011;49449;48.800;9.534;2023-02-01T05:19:27;2.95;;;2.45;;
63320;SDS011;49449;48.800;9.534;2023-02-01T05:21:54;2.95;;;2.47;;
63320;SDS011;49449;48.800;9.534;2023-02-01T05:24:22;2.42;;;2.22;;
63320;SDS011;49449;48.800;9.534;2023-02-01T05:26:50;2.50;;;2.30;;
63320;SDS011;49449;48.800;9.534;2023-02-01T05:29:18;2.50;;;2.00;;
63320;SDS011;49449;48.800;9.534;2023-02-01T05:31:46;2.50;;;2.30;;
63320;SDS011;49449;48.800;9.534;2023-02-01T05:34:15;2.65;;;1.98;;
63320;SDS011;49449;48.800;9.534;2023-02-01T05:36:44;2.40;;;2.20;;
63320;SDS011;49449;48.800;9.534;2023-02-01T05:39:12;2.00;;;1.80;;
63320;SDS011;49449;48.800;9.534;2023-02-01T05:41:40;2.55;;;2.38;;
63320;SDS011;49449;48.800;9.534;2023-02-01T05:44:07;2.20;;;1.98;;
63320;SDS011;49449;48.800;9.534;2023-02-01T05:46:35;2.65;;;2.45;;
63320;SDS011;49449;48.800;9.534;2023-02-01T05:49:03;2.42;;;2.22;;
63320;SDS011;49449;48.800;9.534;2023-02-01T05:51:33;3.88;;;2.40;;
63320;SDS011;49449;48.800;9.534;2023-02-01T05:54:01;2.13;;;1.95;;
63320;SDS011;49449;48.800;9.534;2023-02-01T05:56:28;1.98;;;1.88;;
63320;SDS011;49449;48.800;9.534;2023-02-01T05:58:56;2.53;;;1.95;;
63320;SDS011;49449;48.800;9.534;2023-02-01T06:01:24;2.05;;;1.95;;
63320;SDS011;49449;48.800;9.534;2023-02-01T06:03:52;2.03;;;1.88;;
63320;SDS011;49449;48.800;9.534;2023-02-01T06:06:20;1.90;;;1.80;;
63320;SDS011;49449;48.800;9.534;2023-02-01T06:08:49;2.13;;;1.95;;
63320;SDS011;49449;48.800;9.534;2023-02-01T06:11:16;2.88;;;2.33;;
63320;SDS011;49449;48.800;9.534;2023-02-01T06:13:57;2.60;;;2.40;;
63320;SDS011;49449;48.800;9.534;2023-02-01T06:16:25;2.20;;;2.00;;
63320;SDS011;49449;48.800;9.534;2023-02-01T06:18:53;2.33;;;2.13;;
63320;SDS011;49449;48.800;9.534;2023-02-01T06:21:21;2.40;;;2.17;;
63320;SDS011;49449;48.800;9.534;2023-02-01T06:23:52;2.13;;;2.03;;
63320;SDS011;49449;48.800;9.534;2023-02-01T06:26:21;2.25;;;2.05;;
63320;SDS011;49449;48.800;9.534;2023-02-01T06:28:48;2.08;;;1.98;;
63320;SDS011;49449;48.800;9.534;2023-02-01T06:31:16;2.53;;;2.33;;
63320;SDS011;49449;48.800;9.534;2023-02-01T06:33:44;2.30;;;2.17;;
63320;SDS011;49449;48.800;9.534;2023-02-01T06:36:13;3.65;;;2.30;;
63320;SDS011;49449;48.800;9.534;2023-02-01T06:38:42;2.72;;;2.33;;
63320;SDS011;49449;48.800;9.534;2023-02-01T06:41:11;2.53;;;2.33;;
63320;SDS011;49449;48.800;9.534;2023-02-01T06:43:39;2.63;;;2.22;;
63320;SDS011;49449;48.800;9.534;2023-02-01T06:46:07;3.30;;;2.33;;
63320;SDS011;49449;48.800;9.534;2023-02-01T06:48:39;2.97;;;2.35;;
63320;SDS011;49449;48.800;9.534;2023-02-01T06:51:16;2.38;;;2.17;;
63320;SDS011;49449;48.800;9.534;2023-02-01T06:53:46;2.95;;;2.15;;
63320;SDS011;49449;48.800;9.534;2023-02-01T06:56:16;2.50;;;2.38;;
63320;SDS011;49449;48.800;9.534;2023-02-01T06:58:43;2.85;;;2.33;;
63320;SDS011;49449;48.800;9.534;2023-02-01T07:01:12;2.40;;;2.08;;
63320;SDS011;49449;48.800;9.534;2023-02-01T07:03:41;2.88;;;2.38;;
63320;SDS011;49449;48.800;9.534;2023-02-01T07:06:09;2.42;;;2.22;;
63320;SDS011;49449;48.800;9.534;2023-02-01T07:08:37;2.25;;;1.98;;
63320;SDS011;49449;48.800;9.534;2023-02-01T07:11:05;2.75;;;2.42;;
63320;SDS011;49449;48.800;9.534;2023-02-01T07:13:35;2.67;;;2.38;;
63320;SDS011;49449;48.800;9.534;2023-02-01T07:16:04;4.50;;;2.78;;
63320;SDS011;49449;48.800;9.534;2023-02-01T07:18:33;2.97;;;2.30;;
63320;SDS011;49449;48.800;9.534;2023-02-01T07:21:01;2.25;;;2.13;;
63320;SDS011;49449;48.800;9.534;2023-02-01T07:23:29;2.15;;;1.98;;
63320;SDS011;49449;48.800;9.534;2023-02-01T07:25:58;3.55;;;2.47;;
63320;SDS011;49449;48.800;9.534;2023-02-01T07:28:28;3.17;;;2.90;;
63320;SDS011;49449;48.800;9.534;2023-02-01T07:31:02;2.58;;;2.38;;
63320;SDS011;49449;48.800;9.534;2023-02-01T07:33:31;3.38;;;2.35;;
63320;SDS011;49449;48.800;9.534;2023-02-01T07:35:59;3.08;;;2.67;;
63320;SDS011;49449;48.800;9.534;2023-02-01T07:38:29;2.95;;;2.25;;
63320;SDS011;49449;48.800;9.534;2023-02-01T07:40:57;4.00;;;2.28;;
63320;SDS011;49449;48.800;9.534;2023-02-01T07:43:25;3.17;;;2.17;;
63320;SDS011;49449;48.800;9.534;2023-02-01T07:45:54;2.30;;;2.10;;
63320;SDS011;49449;48.800;9.534;2023-02-01T07:48:24;3.13;;;2.72;;
63320;SDS011;49449;48.800;9.534;2023-02-01T07:50:56;3.10;;;2.13;;
63320;SDS011;49449;48.800;9.534;2023-02-01T07:53:25;2.28;;;2.08;;
63320;SDS011;49449;48.800;9.534;2023-02-01T07:55:53;2.80;;;2.45;;
63320;SDS011;49449;48.800;9.534;2023-02-01T07:58:22;2.20;;;1.98;;
63320;SDS011;49449;48.800;9.534;2023-02-01T08:00:50;3.15;;;2.47;;
63320;SDS011;49449;48.800;9.534;2023-02-01T08:03:37;3.97;;;2.50;;
63320;SDS011;49449;48.800;9.534;2023-02-01T08:06:06;3.92;;;2.45;;
63320;SDS011;49449;48.800;9.534;2023-02-01T08:08:34;2.55;;;2.28;;
63320;SDS011;49449;48.800;9.534;2023-02-01T08:11:03;3.10;;;2.33;;
63320;SDS011;49449;48.800;9.534;2023-02-01T08:13:32;2.58;;;2.20;;
63320;SDS011;49449;48.800;9.534;2023-02-01T08:16:01;3.03;;;2.33;;
63320;SDS011;49449;48.800;9.534;2023-02-01T08:18:31;3.22;;;2.33;;
63320;SDS011;49449;48.800;9.534;2023-02-01T08:21:03;2.85;;;2.25;;
63320;SDS011;49449;48.800;9.534;2023-02-01T08:23:32;2.95;;;2.47;;
63320;SDS011;49449;48.800;9.534;2023-02-01T08:26:04;3.15;;;2.45;;
63320;SDS011;49449;48.800;9.534;2023-02-01T08:28:36;2.47;;;2.28;;
63320;SDS011;49449;48.800;9.534;2023-02-01T08:31:04;2.30;;;2.20;;
63320;SDS011;49449;48.800;9.534;2023-02-01T08:33:33;2.58;;;2.35;;
63320;SDS011;49449;48.800;9.534;2023-02-01T08:36:04;2.30;;;2.08;;
63320;SDS011;49449;48.800;9.534;2023-02-01T08:38:34;2.90;;;2.60;;
63320;SDS011;49449;48.800;9.534;2023-02-01T08:41:06;3.70;;;2.38;;
63320;SDS011;49449;48.800;9.534;2023-02-01T08:43:35;2.50;;;2.17;;
63320;SDS011;49449;48.800;9.534;2023-02-01T08:46:03;2.33;;;1.85;;
63320;SDS011;49449;48.800;9.534;2023-02-01T08:48:33;2.22;;;2.03;;
63320;SDS011;49449;48.800;9.534;2023-02-01T08:51:01;4.03;;;2.42;;
63320;SDS011;49449;48.800;9.534;2023-02-01T08:53:31;2.53;;;2.33;;
63320;SDS011;49449;48.800;9.534;2023-02-01T08:55:59;2.83;;;2.33;;
63320;SDS011;49449;48.800;9.534;2023-02-01T08:58:27;2.15;;;2.05;;
63320;SDS011;49449;48.800;9.534;2023-02-01T09:00:55;2.30;;;2.10;;
63320;SDS011;49449;48.800;9.534;2023-02-01T09:03:23;2.08;;;1.83;;
63320;SDS011;49449;48.800;9.534;2023-02-01T09:05:51;4.18;;;2.50;;
63320;SDS011;49449;48.800;9.534;2023-02-01T09:08:19;2.28;;;2.03;;
63320;SDS011;49449;48.800;9.534;2023-02-01T09:10:48;3.60;;;2.72;;
63320;SDS011;49449;48.800;9.534;2023-02-01T09:13:16;2.17;;;2.08;;
63320;SDS011;49449;48.800;9.534;2023-02-01T09:15:44;3.40;;;2.38;;
63320;SDS011;49449;48.800;9.534;2023-02-01T09:18:14;2.13;;;1.95;;
63320;SDS011;49449;48.800;9.534;2023-02-01T09:20:42;3.60;;;1.98;;
63320;SDS011;49449;48.800;9.534;2023-02-01T09:23:10;2.75;;;2.22;;
63320;SDS011;49449;48.800;9.534;2023-02-01T09:25:38;4.88;;;2.42;;
63320;SDS011;49449;48.800;9.534;2023-02-01T09:28:07;3.17;;;2.15;;
63320;SDS011;49449;48.800;9.534;2023-02-01T09:30:35;2.85;;;1.88;;
63320;SDS011;49449;48.800;9.534;2023-02-01T09:33:04;2.38;;;2.17;;
63320;SDS011;49449;48.800;9.534;2023-02-01T09:35:32;3.80;;;2.38;;
63320;SDS011;49449;48.800;9.534;2023-02-01T09:38:00;4.57;;;2.63;;
63320;SDS011;49449;48.800;9.534;2023-02-01T09:40:27;5.32;;;2.55;;
63320;SDS011;49449;48.800;9.534;2023-02-01T09:43:11;4.20;;;2.40;;
63320;SDS011;49449;48.800;9.534;2023-02-01T09:45:49;2.38;;;2.03;;
63320;SDS011;49449;48.800;9.534;2023-02-01T09:48:27;3.67;;;3.35;;
63320;SDS011;49449;48.800;9.534;2023-02-01T09:50:59;5.07;;;2.80;;
63320;SDS011;49449;48.800;9.534;2023-02-01T09:53:30;4.82;;;2.33;;
63320;SDS011;49449;48.800;9.534;2023-02-01T09:56:02;2.33;;;1.95;;
63320;SDS011;49449;48.800;9.534;2023-02-01T09:58:35;4.80;;;2.58;;
63320;SDS011;49449;48.800;9.534;2023-02-01T10:01:09;5.03;;;2.85;;
63320;SDS011;49449;48.800;9.534;2023-02-01T10:03:43;3.35;;;2.33;;
63320;SDS011;49449;48.800;9.534;2023-02-01T10:06:33;3.22;;;2.35;;
63320;SDS011;49449;48.800;9.534;2023-02-01T10:09:19;3.70;;;2.30;;
63320;SDS011;49449;48.800;9.534;2023-02-01T10:12:04;3.35;;;2.25;;
63320;SDS011;49449;48.800;9.534;2023-02-01T10:14:59;3.53;;;2.50;;
63320;SDS011;49449;48.800;9.534;2023-02-01T10:17:46;3.88;;;2.67;;
63320;SDS011;49449;48.800;9.534;2023-02-01T10:20:27;4.65;;;2.65;;
63320;SDS011;49449;48.800;9.534;2023-02-01T10:23:00;2.95;;;2.70;;
63320;SDS011;49449;48.800;9.534;2023-02-01T10:25:58;4.38;;;2.42;;
63320;SDS011;49449;48.800;9.534;2023-02-01T10:28:32;3.95;;;2.42;;
63320;SDS011;49449;48.800;9.534;2023-02-01T10:31:04;2.90;;;1.98;;
63320;SDS011;49449;48.800;9.534;2023-02-01T10:33:36;6.35;;;2.97;;
63320;SDS011;49449;48.800;9.534;2023-02-01T10:36:10;3.92;;;1.95;;
63320;SDS011;49449;48.800;9.534;2023-02-01T10:38:44;5.15;;;2.75;;
63320;SDS011;49449;48.800;9.534;2023-02-01T10:41:14;3.17;;;2.50;;
63320;SDS011;49449;48.800;9.534;2023-02-01T10:43:44;6.13;;;3.10;;
63320;SDS011;49449;48.800;9.534;2023-02-01T10:46:17;5.57;;;2.80;;
63320;SDS011;49449;48.800;9.534;2023-02-01T10:48:45;6.68;;;2.78;;
63320;SDS011;49449;48.800;9.534;2023-02-01T10:51:14;6.30;;;3.47;;
63320;SDS011;49449;48.800;9.534;2023-02-01T10:53:48;5.32;;;2.65;;
63320;SDS011;49449;48.800;9.534;2023-02-01T10:56:21;5.20;;;2.58;;
63320;SDS011;49449;48.800;9.534;2023-02-01T10:58:50;4.07;;;2.38;;
63320;SDS011;49449;48.800;9.534;2023-02-01T11:01:21;3.42;;;2.50;;
63320;SDS011;49449;48.800;9.534;2023-02-01T11:03:55;5.10;;;2.63;;
63320;SDS011;49449;48.800;9.534;2023-02-01T11:06:26;4.72;;;2.72;;
63320;SDS011;49449;48.800;9.534;2023-02-01T11:08:56;5.63;;;3.05;;
63320;SDS011;49449;48.800;9.534;2023-02-01T11:11:25;5.82;;;3.05;;
63320;SDS011;49449;48.800;9.534;2023-02-01T11:13:54;3.65;;;2.78;;
63320;SDS011;49449;48.800;9.534;2023-02-01T11:16:29;6.80;;;2.92;;
63320;SDS011;49449;48.800;9.534;2023-02-01T11:19:01;6.88;;;2.78;;
63320;SDS011;49449;48.800;9.534;2023-02-01T11:21:29;8.55;;;3.72;;
63320;SDS011;49449;48.800;9.534;2023-02-01T11:24:00;7.60;;;2.83;;
63320;SDS011;49449;48.800;9.534;2023-02-01T11:26:29;6.45;;;2.75;;
63320;SDS011;49449;48.800;9.534;2023-02-01T11:28:59;9.57;;;3.50;;
63320;SDS011;49449;48.800;9.534;2023-02-01T11:31:32;8.20;;;3.42;;
63320;SDS011;49449;48.800;9.534;2023-02-01T11:34:05;5.93;;;2.92;;
63320;SDS011;49449;48.800;9.534;2023-02-01T11:36:35;8.80;;;2.78;;
63320;SDS011;49449;48.800;9.534;2023-02-01T11:39:08;5.60;;;2.72;;
63320;SDS011;49449;48.800;9.534;2023-02-01T11:41:54;9.18;;;2.95;;
63320;SDS011;49449;48.800;9.534;2023-02-01T11:44:31;7.72;;;3.00;;
63320;SDS011;49449;48.800;9.534;2023-02-01T11:49:50;7.00;;;3.00;;
63320;SDS011;49449;48.800;9.534;2023-02-01T11:52:24;7.57;;;2.88;;
63320;SDS011;49449;48.800;9.534;2023-02-01T11:55:17;4.50;;;2.47;;
63320;SDS011;49449;48.800;9.534;2023-02-01T11:58:04;8.63;;;2.90;;
63320;SDS011;49449;48.800;9.534;2023-02-01T12:00:47;8.15;;;3.45;;
63320;SDS011;49449;48.800;9.534;2023-02-01T12:03:35;7.82;;;3.08;;
63320;SDS011;49449;48.800;9.534;2023-02-01T12:06:28;5.97;;;2.70;;
63320;SDS011;49449;48.800;9.534;2023-02-01T12:09:16;7.20;;;2.22;;
63320;SDS011;49449;48.800;9.534;2023-02-01T12:11:57;6.72;;;2.60;;
63320;SDS011;49449;48.800;9.534;2023-02-01T12:14:36;6.72;;;2.88;;
63320;SDS011;49449;48.800;9.534;2023-02-01T12:17:35;5.50;;;2.60;;
63320;SDS011;49449;48.800;9.534;2023-02-01T12:20:24;6.78;;;3.03;;
63320;SDS011;49449;48.800;9.534;2023-02-01T12:23:09;5.80;;;2.28;;
63320;SDS011;49449;48.800;9.534;2023-02-01T12:25:54;5.40;;;2.70;;
63320;SDS011;49449;48.800;9.534;2023-02-01T12:28:39;6.13;;;2.40;;
63320;SDS011;49449;48.800;9.534;2023-02-01T12:34:35;6.03;;;2.70;;
63320;SDS011;49449;48.800;9.534;2023-02-01T12:37:31;7.00;;;2.45;;
63320;SDS011;49449;48.800;9.534;2023-02-01T12:40:13;7.60;;;2.75;;
63320;SDS011;49449;48.800;9.534;2023-02-01T12:42:53;5.50;;;2.47;;
63320;SDS011;49449;48.800;9.534;2023-02-01T12:45:30;4.68;;;2.25;;
63320;SDS011;49449;48.800;9.534;2023-02-01T12:48:03;6.47;;;2.22;;
63320;SDS011;49449;48.800;9.534;2023-02-01T12:50:47;4.55;;;2.05;;
63320;SDS011;49449;48.800;9.534;2023-02-01T12:53:22;4.78;;;2.47;;
63320;SDS011;49449;48.800;9.534;2023-02-01T12:55:56;3.85;;;2.17;;
63320;SDS011;49449;48.800;9.534;2023-02-01T12:58:30;5.45;;;2.72;;
63320;SDS011;49449;48.800;9.534;2023-02-01T13:01:05;6.10;;;3.28;;
63320;SDS011;49449;48.800;9.534;2023-02-01T13:03:38;7.95;;;2.90;;
63320;SDS011;49449;48.800;9.534;2023-02-01T13:06:10;8.27;;;2.05;;
63320;SDS011;49449;48.800;9.534;2023-02-01T13:08:45;7.82;;;2.97;;
63320;SDS011;49449;48.800;9.534;2023-02-01T13:11:18;4.70;;;2.95;;
63320;SDS011;49449;48.800;9.534;2023-02-01T13:13:53;6.43;;;2.20;;
63320;SDS011;49449;48.800;9.534;2023-02-01T13:16:28;5.38;;;2.10;;
63320;SDS011;49449;48.800;9.534;2023-02-01T13:19:00;6.70;;;2.42;;
63320;SDS011;49449;48.800;9.534;2023-02-01T13:21:37;5.75;;;2.38;;
63320;SDS011;49449;48.800;9.534;2023-02-01T13:24:09;7.43;;;2.85;;
63320;SDS011;49449;48.800;9.534;2023-02-01T13:26:54;5.30;;;2.17;;
63320;SDS011;49449;48.800;9.534;2023-02-01T13:29:22;6.90;;;2.35;;
63320;SDS011;49449;48.800;9.534;2023-02-01T13:31:56;4.88;;;2.67;;
63320;SDS011;49449;48.800;9.534;2023-02-01T13:34:47;3.33;;;2.20;;
63320;SDS011;49449;48.800;9.534;2023-02-01T13:37:47;5.90;;;2.05;;
63320;SDS011;49449;48.800;9.534;2023-02-01T13:40:33;4.82;;;2.15;;
63320;SDS011;49449;48.800;9.534;2023-02-01T13:43:06;4.75;;;2.20;;
63320;SDS011;49449;48.800;9.534;2023-02-01T13:45:42;4.47;;;2.35;;
63320;SDS011;49449;48.800;9.534;2023-02-01T13:48:20;5.03;;;2.38;;
63320;SDS011;49449;48.800;9.534;2023-02-01T13:50:52;5.40;;;2.35;;
63320;SDS011;49449;48.800;9.534;2023-02-01T13:53:23;7.35;;;3.15;;
63320;SDS011;49449;48.800;9.534;2023-02-01T13:55:58;5.28;;;2.53;;
63320;SDS011;49449;48.800;9.534;2023-02-01T13:58:32;7.03;;;2.60;;
63320;SDS011;49449;48.800;9.534;2023-02-01T14:04:03;6.32;;;2.13;;
63320;SDS011;49449;48.800;9.534;2023-02-01T14:06:35;3.45;;;2.17;;
63320;SDS011;49449;48.800;9.534;2023-02-01T14:15:14;7.00;;;2.60;;
63320;SDS011;49449;48.800;9.534;2023-02-01T14:17:47;6.88;;;2.45;;
63320;SDS011;49449;48.800;9.534;2023-02-01T14:23:27;5.82;;;2.17;;
63320;SDS011;49449;48.800;9.534;2023-02-01T14:26:05;5.57;;;2.00;;
63320;SDS011;49449;48.800;9.534;2023-02-01T14:28:36;7.65;;;2.72;;
63320;SDS011;49449;48.800;9.534;2023-02-01T14:31:31;4.32;;;2.42;;
63320;SDS011;49449;48.800;9.534;2023-02-01T14:34:13;8.35;;;3.00;;
63320;SDS011;49449;48.800;9.534;2023-02-01T14:36:47;4.88;;;2.40;;
63320;SDS011;49449;48.800;9.534;2023-02-01T14:39:29;8.20;;;3.53;;
63320;SDS011;49449;48.800;9.534;2023-02-01T14:42:02;8.95;;;2.70;;
63320;SDS011;49449;48.800;9.534;2023-02-01T14:44:34;5.35;;;2.38;;
63320;SDS011;49449;48.800;9.534;2023-02-01T14:52:51;7.57;;;2.83;;
63320;SDS011;49449;48.800;9.534;2023-02-01T14:55:33;7.57;;;3.47;;
63320;SDS011;49449;48.800;9.534;2023-02-01T14:58:05;7.93;;;2.78;;
63320;SDS011;49449;48.800;9.534;2023-02-01T15:00:46;7.20;;;2.95;;
63320;SDS011;49449;48.800;9.534;2023-02-01T15:03:21;11.05;;;3.22;;
63320;SDS011;49449;48.800;9.534;2023-02-01T15:05:58;7.00;;;3.10;;
63320;SDS011;49449;48.800;9.534;2023-02-01T15:08:27;8.77;;;3.30;;
63320;SDS011;49449;48.800;9.534;2023-02-01T15:10:58;4.95;;;2.63;;
63320;SDS011;49449;48.800;9.534;2023-02-01T15:13:29;4.70;;;2.80;;
63320;SDS011;49449;48.800;9.534;2023-02-01T15:16:01;6.68;;;2.63;;
63320;SDS011;49449;48.800;9.534;2023-02-01T15:18:34;5.32;;;2.47;;
63320;SDS011;49449;48.800;9.534;2023-02-01T15:21:03;5.85;;;2.83;;
63320;SDS011;49449;48.800;9.534;2023-02-01T15:23:32;5.65;;;2.67;;
63320;SDS011;49449;48.800;9.534;2023-02-01T15:26:00;5.65;;;2.38;;
63320;SDS011;49449;48.800;9.534;2023-02-01T15:28:28;4.90;;;2.78;;
63320;SDS011;49449;48.800;9.534;2023-02-01T15:30:57;8.35;;;3.10;;
63320;SDS011;49449;48.800;9.534;2023-02-01T15:33:28;6.28;;;2.20;;
63320;SDS011;49449;48.800;9.534;2023-02-01T15:36:08;5.88;;;2.33;;
63320;SDS011;49449;48.800;9.534;2023-02-01T15:38:39;8.52;;;2.88;;
63320;SDS011;49449;48.800;9.534;2023-02-01T15:41:08;5.53;;;2.72;;
63320;SDS011;49449;48.800;9.534;2023-02-01T15:43:39;5.88;;;2.80;;
63320;SDS011;49449;48.800;9.534;2023-02-01T15:46:10;10.25;;;2.75;;
63320;SDS011;49449;48.800;9.534;2023-02-01T15:48:45;7.35;;;2.63;;
63320;SDS011;49449;48.800;9.534;2023-02-01T15:51:17;7.90;;;2.17;;
63320;SDS011;49449;48.800;9.534;2023-02-01T15:53:50;3.78;;;2.42;;